Time;durP1;ratioP1;P1;durP2;ratioP2;P2;SDS_P1;SDS_P2;PMS_P1;PMS_P2;Temp;Humidity;BMP_temperature;BMP_pressure;BME280_temperature;BME280_humidity;BME280_pressure;Samples;Min_cycle;Max_cycle;Signal;HPM_P1;HPM_P2
2020/12/13 00:01:44;;;;;;;2.50;1.48;;;4.30;99.90;;;;;;5006902;28;20042;-85
2020/12/13 00:04:10;;;;;;;3.05;1.70;;;4.30;99.90;;;;;;5011304;28;20014;-82
2020/12/13 00:06:35;;;;;;;1.88;1.27;;;4.30;99.90;;;;;;5010390;28;20036;-86
2020/12/13 00:09:03;;;;;;;2.38;1.52;;;4.30;99.90;;;;;;5014386;28;20030;-85
2020/12/13 00:11:29;;;;;;;1.83;1.10;;;4.30;99.90;;;;;;5013737;28;20041;-85
2020/12/13 00:13:56;;;;;;;2.25;1.30;;;4.30;99.90;;;;;;4997393;28;20025;-83
2020/12/13 00:16:23;;;;;;;1.42;1.10;;;4.30;99.90;;;;;;5004492;28;20046;-84
2020/12/13 00:18:49;;;;;;;1.42;1.10;;;4.30;99.90;;;;;;5017904;28;20011;-84
2020/12/13 00:21:15;;;;;;;1.60;1.05;;;4.30;99.90;;;;;;5007733;28;20058;-85
2020/12/13 00:23:43;;;;;;;2.70;1.42;;;4.30;99.90;;;;;;5021537;28;20057;-86
2020/12/13 00:26:15;;;;;;;1.67;1.17;;;4.30;99.90;;;;;;5013709;28;20037;-87
2020/12/13 00:28:41;;;;;;;1.25;0.85;;;4.30;99.90;;;;;;5016684;28;20093;-87
2020/12/13 00:31:13;;;;;;;1.90;1.25;;;4.30;99.90;;;;;;5019701;28;20042;-86
2020/12/13 00:33:38;;;;;;;1.73;0.98;;;4.30;99.90;;;;;;5020124;28;20006;-84
2020/12/13 00:36:04;;;;;;;2.33;1.50;;;4.30;99.90;;;;;;5038561;28;20076;-86
2020/12/13 00:38:30;;;;;;;2.38;1.48;;;4.30;99.90;;;;;;5001506;28;20073;-85
2020/12/13 00:40:55;;;;;;;2.30;1.10;;;4.30;99.90;;;;;;4997221;28;20042;-81
2020/12/13 00:43:21;;;;;;;2.45;1.35;;;4.30;99.90;;;;;;4972622;28;20078;-80
2020/12/13 00:45:47;;;;;;;3.47;1.50;;;4.30;99.90;;;;;;4980681;28;20045;-82
2020/12/13 00:48:12;;;;;;;3.30;1.60;;;4.20;99.90;;;;;;4970828;28;20128;-81
2020/12/13 00:50:39;;;;;;;2.60;1.20;;;4.20;99.90;;;;;;4999237;28;20042;-85
2020/12/13 00:53:08;;;;;;;2.85;1.42;;;4.30;99.90;;;;;;5003005;28;20096;-86
2020/12/13 00:55:34;;;;;;;1.70;1.10;;;4.20;99.90;;;;;;4977028;28;20035;-82
2020/12/13 00:58:00;;;;;;;2.33;1.15;;;4.20;99.90;;;;;;4974978;28;20046;-83
2020/12/13 01:00:27;;;;;;;1.77;1.13;;;4.20;99.90;;;;;;4975003;28;20069;-83
2020/12/13 01:03:00;;;;;;;1.95;1.25;;;4.20;99.90;;;;;;4969315;28;20130;-85
2020/12/13 01:05:26;;;;;;;2.40;1.38;;;4.30;99.90;;;;;;4992591;28;20022;-84
2020/12/13 01:07:52;;;;;;;1.83;0.85;;;4.20;99.90;;;;;;5008127;28;20042;-83
2020/12/13 01:10:19;;;;;;;3.03;1.17;;;4.30;99.90;;;;;;4993663;28;20383;-83
2020/12/13 01:12:44;;;;;;;1.55;0.90;;;4.30;99.90;;;;;;4972063;28;20140;-83
2020/12/13 01:15:12;;;;;;;2.15;1.17;;;4.30;99.90;;;;;;5002203;28;20026;-82
2020/12/13 01:17:37;;;;;;;1.35;1.05;;;4.30;99.90;;;;;;4981680;28;20027;-84
2020/12/13 01:20:07;;;;;;;2.00;0.90;;;4.30;99.90;;;;;;4989135;28;20518;-84
2020/12/13 01:22:36;;;;;;;1.20;0.80;;;4.30;99.90;;;;;;4973449;28;20069;-84
2020/12/13 01:25:04;;;;;;;1.88;0.98;;;4.20;99.90;;;;;;5017061;28;20022;-84
2020/12/13 01:27:29;;;;;;;1.60;0.98;;;4.20;99.90;;;;;;4987487;28;20043;-84
2020/12/13 01:29:55;;;;;;;1.90;1.20;;;4.20;99.90;;;;;;4977371;28;20046;-83
2020/12/13 01:32:20;;;;;;;1.48;0.80;;;4.20;99.90;;;;;;4976132;28;20474;-83
2020/12/13 01:34:46;;;;;;;1.17;1.00;;;4.20;99.90;;;;;;4994974;28;20034;-84
2020/12/13 01:37:12;;;;;;;1.23;0.70;;;4.20;99.90;;;;;;4977240;28;20035;-84
2020/12/13 01:39:37;;;;;;;1.30;0.80;;;4.20;99.90;;;;;;4999340;28;20053;-84
2020/12/13 01:42:04;;;;;;;1.10;0.90;;;4.20;99.90;;;;;;4993791;28;20436;-83
2020/12/13 01:44:31;;;;;;;1.27;1.00;;;4.20;99.90;;;;;;5010531;28;20093;-83
2020/12/13 01:46:58;;;;;;;1.40;0.90;;;4.20;99.90;;;;;;5014530;28;20038;-83
2020/12/13 01:49:30;;;;;;;1.42;0.90;;;4.20;99.90;;;;;;5014775;28;20476;-83
2020/12/13 01:54:26;;;;;;;1.58;1.15;;;4.20;99.90;;;;;;5011249;28;20026;-84
2020/12/13 01:56:56;;;;;;;1.38;1.00;;;4.20;99.90;;;;;;5011091;28;20030;-84
2020/12/13 01:59:25;;;;;;;4.68;1.20;;;4.20;99.90;;;;;;5015289;28;20084;-83
2020/12/13 02:01:57;;;;;;;1.38;0.90;;;4.20;99.90;;;;;;5013097;28;20033;-83
2020/12/13 02:04:27;;;;;;;1.20;0.90;;;4.20;99.90;;;;;;5015299;28;20106;-83
2020/12/13 02:06:54;;;;;;;1.27;0.68;;;4.20;99.90;;;;;;5016190;28;20396;-85
2020/12/13 02:09:24;;;;;;;1.15;0.90;;;4.20;99.90;;;;;;4996993;28;20088;-86
2020/12/13 02:11:51;;;;;;;1.30;1.00;;;4.20;99.90;;;;;;5006809;28;20038;-83
2020/12/13 02:14:18;;;;;;;0.98;0.80;;;4.20;99.90;;;;;;5025281;28;20041;-82
2020/12/13 02:16:45;;;;;;;6.18;1.52;;;4.20;99.90;;;;;;4996083;28;20100;-83
2020/12/13 02:19:12;;;;;;;1.83;1.05;;;4.20;99.90;;;;;;5014942;28;20121;-84
2020/12/13 02:21:49;;;;;;;1.02;0.63;;;4.20;99.90;;;;;;5010978;28;20044;-83
2020/12/13 02:24:15;;;;;;;2.10;0.90;;;4.20;99.90;;;;;;4984495;28;20033;-83
2020/12/13 02:26:45;;;;;;;2.25;1.20;;;4.20;99.90;;;;;;5015825;28;20060;-86
2020/12/13 02:29:10;;;;;;;;;;;4.20;99.90;;;;;;5001228;28;20018;-81
2020/12/13 02:31:36;;;;;;;1.60;1.10;;;4.20;99.90;;;;;;5010333;28;19988;-84
2020/12/13 02:34:03;;;;;;;1.25;0.90;;;4.20;99.90;;;;;;5000512;28;20037;-85
2020/12/13 02:36:30;;;;;;;1.80;1.10;;;4.20;99.90;;;;;;4993605;28;20444;-84
2020/12/13 02:38:55;;;;;;;1.02;0.77;;;4.20;99.90;;;;;;4979914;28;20050;-84
2020/12/13 02:41:22;;;;;;;3.08;1.30;;;4.30;99.90;;;;;;4979303;28;20038;-84
2020/12/13 02:43:48;;;;;;;2.53;1.27;;;4.20;99.90;;;;;;4983097;28;20060;-83
2020/12/13 02:46:14;;;;;;;1.67;1.10;;;4.20;99.90;;;;;;4980936;28;20385;-84
2020/12/13 02:48:39;;;;;;;3.17;1.67;;;4.20;99.90;;;;;;4974675;28;20030;-82
2020/12/13 02:51:05;;;;;;;2.08;1.40;;;4.20;99.90;;;;;;4984296;28;20049;-84
2020/12/13 02:53:31;;;;;;;2.25;1.55;;;4.20;99.90;;;;;;5002380;28;20026;-84
2020/12/13 02:55:56;;;;;;;3.15;1.70;;;4.20;99.90;;;;;;4990383;28;20033;-83
2020/12/13 02:58:22;;;;;;;3.58;1.73;;;4.20;99.90;;;;;;4984255;28;20023;-84
2020/12/13 03:00:47;;;;;;;2.50;1.40;;;4.20;99.90;;;;;;4992558;28;20114;-84
2020/12/13 03:03:14;;;;;;;2.85;1.80;;;4.20;99.90;;;;;;4996241;28;20038;-84
2020/12/13 03:05:40;;;;;;;2.60;1.60;;;4.20;99.90;;;;;;4975558;28;20030;-83
2020/12/13 03:08:05;;;;;;;1.90;1.17;;;4.20;99.90;;;;;;4979849;28;20458;-84
2020/12/13 03:10:31;;;;;;;2.42;1.48;;;4.20;99.90;;;;;;4987067;28;20055;-84
2020/12/13 03:12:57;;;;;;;2.35;1.48;;;4.20;99.90;;;;;;5001727;28;20041;-85
2020/12/13 03:15:22;;;;;;;3.20;1.90;;;4.20;99.90;;;;;;4980217;28;20089;-84
2020/12/13 03:17:48;;;;;;;2.65;1.75;;;4.30;99.90;;;;;;5001056;28;20038;-85
2020/12/13 03:20:13;;;;;;;2.50;1.63;;;4.30;99.90;;;;;;4991355;28;20034;-85
2020/12/13 03:22:39;;;;;;;2.65;1.77;;;4.30;99.90;;;;;;4980945;28;20034;-84
2020/12/13 03:25:07;;;;;;;2.60;1.63;;;4.30;99.90;;;;;;4977110;28;20038;-84
2020/12/13 03:27:32;;;;;;;2.83;1.98;;;4.30;99.90;;;;;;4993493;28;20022;-84
2020/12/13 03:29:58;;;;;;;2.10;1.38;;;4.30;99.90;;;;;;4991830;28;20037;-84
2020/12/13 03:32:23;;;;;;;3.38;1.73;;;4.30;99.90;;;;;;4984662;28;20045;-83
2020/12/13 03:34:49;;;;;;;2.28;1.70;;;4.30;99.90;;;;;;4981859;28;20018;-84
2020/12/13 03:37:17;;;;;;;3.80;2.10;;;4.30;99.90;;;;;;5010407;28;20026;-86
2020/12/13 03:39:43;;;;;;;2.80;1.80;;;4.40;99.90;;;;;;4981210;28;20031;-84
2020/12/13 03:42:09;;;;;;;2.10;1.58;;;4.40;99.90;;;;;;4971376;28;20116;-83
2020/12/13 03:44:36;;;;;;;3.50;1.88;;;4.40;99.90;;;;;;4989206;28;20377;-84
2020/12/13 03:47:02;;;;;;;3.28;2.00;;;4.40;99.90;;;;;;4987704;28;20117;-86
2020/12/13 03:49:27;;;;;;;2.58;1.73;;;4.40;99.90;;;;;;4988668;28;20109;-84
2020/12/13 03:51:53;;;;;;;3.47;1.83;;;4.40;99.90;;;;;;4972579;28;20125;-83
2020/12/13 03:54:20;;;;;;;3.45;2.13;;;4.40;99.90;;;;;;4970517;28;20039;-84
2020/12/13 03:56:45;;;;;;;3.78;2.30;;;4.40;99.90;;;;;;4984405;28;20038;-83
2020/12/13 03:59:11;;;;;;;5.60;2.58;;;4.30;99.90;;;;;;4973160;28;20548;-81
2020/12/13 04:01:37;;;;;;;3.53;2.22;;;4.30;99.90;;;;;;4972490;28;20550;-83
2020/12/13 04:04:03;;;;;;;4.15;2.20;;;4.40;99.90;;;;;;4974923;28;20085;-82
2020/12/13 04:06:28;;;;;;;4.07;2.55;;;4.30;99.90;;;;;;4991871;28;20042;-84
2020/12/13 04:08:54;;;;;;;4.40;2.45;;;4.30;99.90;;;;;;4967569;28;20034;-83
2020/12/13 04:11:19;;;;;;;4.18;2.67;;;4.30;99.90;;;;;;4972045;28;20430;-82
2020/12/13 04:13:45;;;;;;;5.50;2.78;;;4.30;99.90;;;;;;4972597;28;20513;-83
2020/12/13 04:16:12;;;;;;;4.50;2.72;;;4.30;99.90;;;;;;4980857;28;20031;-83
2020/12/13 04:18:38;;;;;;;5.65;2.92;;;4.30;99.90;;;;;;4986712;28;20023;-82
2020/12/13 04:21:04;;;;;;;5.05;3.00;;;4.30;99.90;;;;;;4968604;28;20038;-84
2020/12/13 04:23:30;;;;;;;4.65;2.90;;;4.30;99.90;;;;;;4990873;28;20023;-83
2020/12/13 04:25:56;;;;;;;6.20;4.00;;;4.30;99.90;;;;;;4966421;28;20101;-84
2020/12/13 04:28:22;;;;;;;6.40;3.53;;;4.30;99.90;;;;;;4979985;28;20105;-84
2020/12/13 04:30:47;;;;;;;5.45;3.28;;;4.30;99.90;;;;;;4974061;28;20043;-84
2020/12/13 04:33:13;;;;;;;6.43;4.10;;;4.30;99.90;;;;;;4991681;28;20038;-84
2020/12/13 04:35:39;;;;;;;5.22;3.33;;;4.40;99.90;;;;;;4973975;28;20451;-83
2020/12/13 04:38:05;;;;;;;5.50;3.80;;;4.40;99.90;;;;;;4969410;28;20046;-85
2020/12/13 04:40:33;;;;;;;5.60;3.38;;;4.40;99.90;;;;;;4982707;28;20086;-84
2020/12/13 04:43:00;;;;;;;5.97;3.33;;;4.40;99.90;;;;;;4995036;28;20022;-84
2020/12/13 04:45:26;;;;;;;6.25;3.33;;;4.40;99.90;;;;;;4997692;28;20034;-84
2020/12/13 04:48:07;;;;;;;5.57;3.47;;;4.40;99.90;;;;;;4994883;28;20086;-83
2020/12/13 04:50:35;;;;;;;6.25;3.97;;;4.40;99.90;;;;;;4993163;28;20103;-84
2020/12/13 04:53:05;;;;;;;5.68;3.22;;;4.40;99.90;;;;;;4994331;28;20032;-83
2020/12/13 04:55:33;;;;;;;6.30;3.80;;;4.40;99.90;;;;;;4987625;28;20049;-83
2020/12/13 04:57:58;;;;;;;5.68;3.67;;;4.40;99.90;;;;;;4986115;28;20022;-84
2020/12/13 05:00:29;;;;;;;6.90;4.40;;;4.40;99.90;;;;;;4994514;28;20422;-84
2020/12/13 05:02:57;;;;;;;7.95;4.30;;;4.40;99.90;;;;;;4972282;28;20042;-83
2020/12/13 05:05:22;;;;;;;7.10;3.50;;;4.40;99.90;;;;;;4990272;28;20109;-84
2020/12/13 05:07:48;;;;;;;6.55;4.03;;;4.40;99.90;;;;;;4991160;28;20042;-83
2020/12/13 05:10:13;;;;;;;7.63;4.47;;;4.40;99.90;;;;;;4992972;28;20036;-83
2020/12/13 05:12:39;;;;;;;6.93;3.92;;;4.50;99.90;;;;;;4975598;28;20066;-84
2020/12/13 05:15:05;;;;;;;7.70;4.82;;;4.50;99.90;;;;;;4967971;28;20031;-84
2020/12/13 05:17:33;;;;;;;8.00;4.47;;;4.50;99.90;;;;;;4977563;28;20039;-86
2020/12/13 05:19:58;;;;;;;7.18;4.40;;;4.50;99.90;;;;;;4979378;28;20813;-85
2020/12/13 05:22:24;;;;;;;8.43;5.22;;;4.50;99.90;;;;;;4988261;28;20098;-83
2020/12/13 05:24:50;;;;;;;8.07;5.03;;;4.50;99.90;;;;;;4987667;28;20045;-83
2020/12/13 05:27:21;;;;;;;7.95;5.00;;;4.50;99.90;;;;;;4992369;28;20026;-84
2020/12/13 05:29:49;;;;;;;8.88;4.85;;;4.50;99.90;;;;;;4993900;28;20076;-84
2020/12/13 05:32:18;;;;;;;8.65;4.60;;;4.50;99.90;;;;;;4975526;28;20043;-84
2020/12/13 05:34:47;;;;;;;8.90;5.22;;;4.50;99.90;;;;;;4977712;28;20030;-83
2020/12/13 05:37:14;;;;;;;9.15;5.10;;;4.50;99.90;;;;;;4977467;28;20062;-84
2020/12/13 05:39:43;;;;;;;5.85;2.92;;;4.50;99.90;;;;;;4997724;28;20124;-84
2020/12/13 05:42:09;;;;;;;5.68;2.78;;;4.50;99.90;;;;;;4997274;28;20084;-84
2020/12/13 05:47:11;;;;;;;8.13;4.22;;;4.50;99.90;;;;;;5029086;28;20026;-84
2020/12/13 05:52:06;;;;;;;8.70;4.90;;;4.50;99.90;;;;;;5015118;28;20042;-84
2020/12/13 05:54:33;;;;;;;9.82;5.50;;;4.50;99.90;;;;;;4993362;28;20034;-85
2020/12/13 05:57:00;;;;;;;8.52;4.70;;;4.50;99.90;;;;;;5010174;28;20022;-84
2020/12/13 05:59:28;;;;;;;9.45;4.97;;;4.50;99.90;;;;;;5011995;28;20341;-86
2020/12/13 06:01:55;;;;;;;9.25;4.90;;;4.50;99.90;;;;;;4993515;28;20137;-86
2020/12/13 06:04:28;;;;;;;7.00;4.43;;;4.50;99.90;;;;;;4994861;28;20037;-84
2020/12/13 06:06:56;;;;;;;8.32;4.78;;;4.60;99.90;;;;;;4976000;28;20034;-83
2020/12/13 06:09:36;;;;;;;9.27;4.93;;;4.50;99.90;;;;;;4994621;28;20079;-85
2020/12/13 06:12:05;;;;;;;;;;;4.50;99.90;;;;;;4996709;28;20061;-83
2020/12/13 06:14:33;;;;;;;8.57;4.82;;;4.50;99.90;;;;;;5009765;28;19920;-84
2020/12/13 06:17:02;;;;;;;7.50;4.50;;;4.50;99.90;;;;;;5010598;28;20081;-85
2020/12/13 06:19:29;;;;;;;9.33;4.90;;;4.50;99.90;;;;;;4996357;28;20239;-85
2020/12/13 06:21:56;;;;;;;10.07;4.78;;;4.50;99.90;;;;;;4994573;28;20128;-84
2020/12/13 06:24:24;;;;;;;9.85;5.43;;;4.50;99.90;;;;;;4996122;28;20038;-84
2020/12/13 06:26:51;;;;;;;11.40;5.93;;;4.50;99.90;;;;;;4991548;28;20116;-87
2020/12/13 06:29:22;;;;;;;9.88;5.13;;;4.50;99.90;;;;;;4994175;28;20112;-86
2020/12/13 06:31:49;;;;;;;8.98;4.82;;;4.60;99.90;;;;;;4986142;28;20038;-85
2020/12/13 06:34:15;;;;;;;9.93;5.05;;;4.60;99.90;;;;;;4993981;28;20397;-85
2020/12/13 06:36:41;;;;;;;10.65;5.80;;;4.50;99.90;;;;;;4998779;28;20049;-85
2020/12/13 06:39:15;;;;;;;8.05;3.95;;;4.60;99.90;;;;;;4999330;28;20042;-85
2020/12/13 06:41:46;;;;;;;9.25;4.55;;;4.50;99.90;;;;;;4995909;28;20021;-84
2020/12/13 06:44:13;;;;;;;15.30;6.72;;;4.60;99.90;;;;;;4994928;28;20026;-85
2020/12/13 06:46:41;;;;;;;11.70;5.85;;;4.60;99.90;;;;;;4997061;28;20541;-85
2020/12/13 06:49:16;;;;;;;12.57;5.88;;;4.60;99.90;;;;;;4993418;28;20507;-84
2020/12/13 06:51:44;;;;;;;12.05;5.80;;;4.60;99.90;;;;;;5003723;28;20033;-86
2020/12/13 06:54:12;;;;;;;13.18;6.97;;;4.60;99.90;;;;;;5018771;28;20029;-86
2020/12/13 06:56:38;;;;;;;12.93;6.72;;;4.60;99.90;;;;;;5007118;28;20314;-86
2020/12/13 06:59:06;;;;;;;13.25;6.75;;;4.60;99.90;;;;;;5007000;28;20044;-85
2020/12/13 07:01:34;;;;;;;11.10;5.35;;;4.60;99.90;;;;;;5027519;28;20026;-83
2020/12/13 07:04:21;;;;;;;12.90;6.13;;;4.50;99.90;;;;;;5017038;28;20066;-77
2020/12/13 07:06:54;;;;;;;12.40;7.00;;;4.50;99.90;;;;;;5008480;28;20030;-77
2020/12/13 07:09:21;;;;;;;12.48;6.47;;;4.50;99.90;;;;;;5005130;28;20464;-79
2020/12/13 07:11:48;;;;;;;10.73;5.75;;;4.50;99.90;;;;;;5007473;28;20124;-77
2020/12/13 07:14:16;;;;;;;13.48;7.45;;;4.50;99.90;;;;;;5007903;28;20022;-77
2020/12/13 07:16:45;;;;;;;14.38;7.63;;;4.50;99.90;;;;;;5009174;28;20030;-77
2020/12/13 07:19:17;;;;;;;14.35;6.88;;;4.60;99.90;;;;;;5009063;28;20018;-78
2020/12/13 07:21:44;;;;;;;12.20;5.88;;;4.60;99.90;;;;;;5009591;28;20105;-81
2020/12/13 07:24:11;;;;;;;14.20;7.45;;;4.60;99.90;;;;;;5009469;28;20155;-80
2020/12/13 07:26:38;;;;;;;13.60;6.60;;;4.60;99.90;;;;;;5004172;28;20442;-79
2020/12/13 07:29:06;;;;;;;15.38;7.38;;;4.60;99.90;;;;;;5009211;28;20030;-79
2020/12/13 07:31:36;;;;;;;15.48;7.95;;;4.60;99.90;;;;;;5002278;28;20444;-80
2020/12/13 07:34:05;;;;;;;13.95;6.90;;;4.60;99.90;;;;;;5009464;28;20025;-79
2020/12/13 07:36:32;;;;;;;13.63;7.25;;;4.60;99.90;;;;;;5007619;28;20104;-79
2020/12/13 07:39:00;;;;;;;11.93;6.63;;;4.60;99.90;;;;;;4995337;28;20042;-79
2020/12/13 07:41:26;;;;;;;14.13;7.07;;;4.60;99.90;;;;;;4994676;28;20125;-79
2020/12/13 07:43:55;;;;;;;12.32;6.97;;;4.70;99.90;;;;;;5000211;28;20089;-80
2020/12/13 07:46:21;;;;;;;11.43;5.32;;;4.70;99.90;;;;;;4994299;28;20097;-79
2020/12/13 07:48:47;;;;;;;12.93;7.63;;;4.70;99.90;;;;;;4989623;28;20035;-79
2020/12/13 07:51:13;;;;;;;12.65;7.10;;;4.70;99.90;;;;;;4996955;28;20033;-80
2020/12/13 07:53:38;;;;;;;12.93;7.60;;;4.80;99.90;;;;;;4994301;28;20096;-80
2020/12/13 07:56:04;;;;;;;14.63;7.30;;;4.80;99.90;;;;;;5000337;28;20042;-80
2020/12/13 07:58:30;;;;;;;8.90;4.25;;;4.70;99.90;;;;;;4998792;28;20027;-79
2020/12/13 08:01:11;;;;;;;14.07;6.80;;;4.70;99.90;;;;;;4994905;28;20102;-78
2020/12/13 08:03:44;;;;;;;15.15;8.18;;;4.70;99.90;;;;;;4994879;28;20022;-78
2020/12/13 08:06:10;;;;;;;15.55;8.55;;;4.70;99.90;;;;;;4996096;28;20425;-79
2020/12/13 08:08:45;;;;;;;14.00;7.85;;;4.70;99.90;;;;;;4993477;28;20022;-78
2020/12/13 08:11:12;;;;;;;12.95;6.95;;;4.70;99.90;;;;;;5000392;28;20101;-79
2020/12/13 08:13:48;;;;;;;13.35;7.60;;;4.80;99.90;;;;;;5002280;28;20018;-78
2020/12/13 08:16:15;;;;;;;13.18;8.15;;;4.80;99.90;;;;;;4999291;28;20482;-81
2020/12/13 08:18:46;;;;;;;12.20;6.75;;;4.80;99.90;;;;;;5001052;28;20079;-79
2020/12/13 08:21:18;;;;;;;15.63;7.53;;;4.80;99.90;;;;;;4998176;28;20038;-78
2020/12/13 08:23:47;;;;;;;10.98;6.82;;;4.90;99.90;;;;;;4992499;28;20037;-79
2020/12/13 08:26:14;;;;;;;12.30;7.43;;;4.90;99.90;;;;;;4993049;28;20026;-77
2020/12/13 08:28:42;;;;;;;12.40;6.90;;;4.90;99.90;;;;;;4997944;28;20050;-80
2020/12/13 08:31:13;;;;;;;10.57;6.53;;;4.90;99.90;;;;;;4999586;28;20034;-79
2020/12/13 08:33:40;;;;;;;11.75;7.05;;;4.90;99.90;;;;;;4992708;28;20018;-78
2020/12/13 08:36:25;;;;;;;9.85;5.75;;;4.90;99.90;;;;;;4992940;28;20062;-81
2020/12/13 08:39:04;;;;;;;9.50;5.75;;;4.90;99.90;;;;;;4988766;28;20093;-78
2020/12/13 08:41:30;;;;;;;11.18;6.63;;;4.90;99.90;;;;;;4992306;28;20045;-79
2020/12/13 08:43:56;;;;;;;11.05;6.85;;;4.90;99.90;;;;;;4986907;28;20038;-80
2020/12/13 08:46:33;;;;;;;10.57;5.85;;;5.00;99.90;;;;;;4992256;28;20088;-81
2020/12/13 08:49:00;;;;;;;10.55;6.30;;;4.90;99.90;;;;;;4992436;28;20076;-80
2020/12/13 08:51:27;;;;;;;10.68;5.97;;;5.00;99.90;;;;;;4993768;28;20045;-80
2020/12/13 08:54:04;;;;;;;9.80;5.68;;;5.00;99.90;;;;;;4992054;28;20042;-81
2020/12/13 08:56:37;;;;;;;9.75;5.95;;;4.90;99.90;;;;;;4989349;28;20023;-80
2020/12/13 08:59:04;;;;;;;10.13;5.97;;;4.90;99.90;;;;;;4992903;28;20049;-82
2020/12/13 09:01:33;;;;;;;8.88;4.85;;;4.90;99.90;;;;;;4993076;28;20169;-80
2020/12/13 09:03:59;;;;;;;9.05;5.57;;;4.90;99.90;;;;;;4989332;28;20023;-80
2020/12/13 09:06:35;;;;;;;10.23;5.18;;;4.90;99.90;;;;;;4996564;28;20047;-79
2020/12/13 09:09:13;;;;;;;9.90;6.40;;;4.90;99.90;;;;;;4993764;28;20029;-79
2020/12/13 09:11:41;;;;;;;8.75;5.82;;;4.90;99.90;;;;;;4992871;28;20042;-79
2020/12/13 09:14:07;;;;;;;10.32;5.65;;;4.90;99.90;;;;;;4988949;28;20022;-79
2020/12/13 09:16:34;;;;;;;8.27;5.00;;;4.90;99.90;;;;;;4992559;28;20067;-81
2020/12/13 09:19:05;;;;;;;8.18;5.18;;;4.90;99.90;;;;;;4990498;28;20014;-79
2020/12/13 09:21:50;;;;;;;9.10;5.35;;;4.90;99.90;;;;;;4993772;28;20027;-80
2020/12/13 09:24:24;;;;;;;9.55;5.80;;;4.90;99.90;;;;;;4990645;28;20026;-79
2020/12/13 09:26:57;;;;;;;7.57;4.07;;;5.00;99.90;;;;;;4984880;28;20114;-78
2020/12/13 09:29:23;;;;;;;9.05;4.53;;;5.00;99.90;;;;;;4988123;28;20022;-76
2020/12/13 09:31:48;;;;;;;6.53;4.03;;;5.00;99.90;;;;;;4992114;28;20042;-78
2020/12/13 09:34:14;;;;;;;6.70;4.25;;;5.10;99.90;;;;;;4997812;28;20389;-77
2020/12/13 09:36:43;;;;;;;5.35;3.30;;;5.10;99.90;;;;;;5001800;28;20034;-80
2020/12/13 09:39:12;;;;;;;6.88;3.92;;;5.10;99.90;;;;;;5013895;28;20531;-80
2020/12/13 09:41:59;;;;;;;5.65;3.38;;;5.10;99.90;;;;;;4988905;28;20030;-82
2020/12/13 09:44:25;;;;;;;7.70;3.58;;;5.10;99.90;;;;;;4996427;28;20568;-83
2020/12/13 09:47:07;;;;;;;6.00;3.55;;;5.00;99.90;;;;;;4988940;28;20142;-85
2020/12/13 09:49:41;;;;;;;6.20;3.58;;;5.10;99.90;;;;;;4994827;28;20018;-83
2020/12/13 09:52:06;;;;;;;5.55;3.25;;;5.00;99.90;;;;;;4984656;28;20030;-82
2020/12/13 09:54:32;;;;;;;4.88;2.90;;;5.00;99.90;;;;;;5016276;28;20424;-82
2020/12/13 09:56:58;;;;;;;6.55;4.10;;;5.00;99.90;;;;;;4998864;28;20039;-80
2020/12/13 09:59:25;;;;;;;6.70;3.53;;;5.00;99.90;;;;;;5012677;28;20454;-79
2020/12/13 10:01:51;;;;;;;6.40;4.20;;;4.90;99.90;;;;;;5009544;28;20029;-82
2020/12/13 10:04:19;;;;;;;6.32;3.90;;;5.00;99.90;;;;;;5012083;28;20037;-81
2020/12/13 10:09:32;;;;;;;5.68;3.50;;;4.90;99.90;;;;;;5015702;28;20029;-84
2020/12/13 10:11:58;;;;;;;6.07;3.20;;;4.90;99.90;;;;;;5026268;28;20038;-81
2020/12/13 10:14:23;;;;;;;7.13;3.50;;;5.00;99.90;;;;;;5012651;28;20030;-81
2020/12/13 10:19:31;;;;;;;4.95;3.22;;;5.00;99.90;;;;;;5714161;23;20042;-84
2020/12/13 10:21:59;;;;;;;5.72;3.42;;;5.10;99.90;;;;;;4973183;28;20045;-83
2020/12/13 10:24:33;;;;;;;4.68;2.85;;;5.10;99.90;;;;;;4964399;28;20030;-83
2020/12/13 10:27:05;;;;;;;4.75;2.80;;;5.10;99.90;;;;;;4953408;28;20106;-83
2020/12/13 10:29:30;;;;;;;5.78;3.13;;;5.20;99.90;;;;;;4955269;28;20046;-85
2020/12/13 10:32:40;;;;;;;3.28;2.30;;;5.20;99.90;;;;;;4960244;28;20051;-86
2020/12/13 10:41:05;;;;;;;6.72;2.80;;;5.30;99.90;;;;;;4992154;23;20162;-86
2020/12/13 10:43:30;;;;;;;3.42;2.42;;;5.30;99.90;;;;;;4975334;28;20069;-85
2020/12/13 10:45:56;;;;;;;4.07;2.40;;;5.40;99.90;;;;;;4976973;28;20342;-85
2020/12/13 10:48:21;;;;;;;3.35;2.17;;;5.40;99.90;;;;;;4992381;28;20022;-86
2020/12/13 10:50:47;;;;;;;3.72;1.88;;;5.40;99.90;;;;;;4970633;28;20076;-87
2020/12/13 10:53:13;;;;;;;2.70;1.75;;;5.50;99.90;;;;;;4980908;28;20041;-86
2020/12/13 10:55:39;;;;;;;2.75;1.52;;;5.50;99.90;;;;;;4982518;28;20033;-88
2020/12/13 10:58:05;;;;;;;3.13;1.83;;;5.50;99.90;;;;;;4980570;28;20033;-85
2020/12/13 11:00:31;;;;;;;3.28;2.13;;;5.50;99.90;;;;;;4980626;28;20055;-85
2020/12/13 11:02:57;;;;;;;2.60;1.80;;;5.50;99.90;;;;;;4981187;28;20061;-87
2020/12/13 11:05:22;;;;;;;2.63;1.35;;;5.50;99.90;;;;;;4985073;28;20026;-89
2020/12/13 11:07:48;;;;;;;2.15;1.30;;;5.50;99.90;;;;;;4982055;28;20114;-89
2020/12/13 11:10:15;;;;;;;2.92;0.85;;;5.50;99.90;;;;;;4998925;28;20496;-88
2020/12/13 11:12:41;;;;;;;3.45;1.20;;;5.50;99.90;;;;;;4963788;28;20035;-88
2020/12/13 11:15:07;;;;;;;3.35;1.60;;;5.50;99.90;;;;;;4977463;28;20045;-85
2020/12/13 11:17:35;;;;;;;3.15;1.70;;;5.50;99.90;;;;;;4974130;28;20454;-85
2020/12/13 11:20:01;;;;;;;2.60;1.38;;;5.50;99.90;;;;;;5003158;28;20018;-86
2020/12/13 11:22:26;;;;;;;3.15;1.50;;;5.60;99.90;;;;;;4985840;28;20468;-86
2020/12/13 11:24:52;;;;;;;4.82;1.60;;;5.60;99.90;;;;;;4974975;28;20026;-86
2020/12/13 11:27:18;;;;;;;2.40;1.15;;;5.60;99.90;;;;;;4985742;28;20034;-89
2020/12/13 11:29:44;;;;;;;2.95;1.20;;;5.60;99.90;;;;;;5013784;28;20494;-86
2020/12/13 11:32:33;;;;;;;2.83;1.48;;;5.60;99.90;;;;;;5009060;28;20084;-85
2020/12/13 11:35:00;;;;;;;1.83;1.00;;;5.60;99.90;;;;;;4980975;28;20105;-90
2020/12/13 11:37:25;;;;;;;2.85;1.30;;;5.60;99.90;;;;;;5002418;28;20078;-81
2020/12/13 11:39:51;;;;;;;1.10;0.80;;;5.60;99.90;;;;;;4979802;28;20458;-84
2020/12/13 11:42:19;;;;;;;4.93;1.67;;;5.50;99.90;;;;;;4976261;28;20073;-81
2020/12/13 11:44:46;;;;;;;3.83;1.60;;;5.50;99.90;;;;;;4994918;28;20553;-82
2020/12/13 11:47:12;;;;;;;3.38;1.70;;;5.50;99.90;;;;;;4989626;28;20093;-83
2020/12/13 11:49:38;;;;;;;1.83;1.13;;;5.40;99.90;;;;;;5008944;28;20043;-81
2020/12/13 11:52:04;;;;;;;2.90;1.88;;;5.50;99.90;;;;;;4980643;28;20194;-82
2020/12/13 11:54:29;;;;;;;2.97;1.55;;;5.40;99.90;;;;;;4989423;28;20034;-84
2020/12/13 11:56:56;;;;;;;3.78;1.80;;;5.50;99.90;;;;;;4979084;28;20027;-82
2020/12/13 11:59:22;;;;;;;3.75;1.80;;;5.40;99.90;;;;;;4980435;28;20110;-82
2020/12/13 12:08:52;;;;;;;2.92;1.70;;;5.40;99.90;;;;;;4923232;29;20035;-85
2020/12/13 12:11:27;;;;;;;2.60;1.73;;;5.50;99.90;;;;;;4913479;29;20040;-82
2020/12/13 12:14:19;;;;;;;3.65;1.80;;;5.50;99.90;;;;;;4912178;29;20053;-85
2020/12/13 12:16:52;;;;;;;4.95;1.90;;;5.50;99.90;;;;;;4922578;29;20036;-82
2020/12/13 12:20:19;;;;;;;2.78;1.65;;;5.50;99.90;;;;;;4911358;29;20076;-85
2020/12/13 12:26:04;;;;;;;;;;;5.50;99.90;;;;;;4820923;29;20054;-85
2020/12/13 12:28:35;;;;;;;4.38;2.10;;;5.40;99.90;;;;;;4806454;29;20441;-84
2020/12/13 12:31:01;;;;;;;4.80;2.20;;;5.40;99.90;;;;;;4802473;29;20126;-85
2020/12/13 12:33:26;;;;;;;4.28;2.72;;;5.30;99.90;;;;;;4809962;29;20190;-85
2020/12/13 12:35:57;;;;;;;3.33;2.33;;;5.30;99.90;;;;;;4808064;29;20042;-86
2020/12/13 12:39:07;;;;;;;3.60;2.13;;;5.20;99.90;;;;;;4823938;29;20068;-86
2020/12/13 12:41:33;;;;;;;;;;;5.20;99.90;;;;;;4810332;29;20050;-83
2020/12/13 12:44:01;;;;;;;3.30;1.73;;;5.20;99.90;;;;;;4814264;29;20482;-77
2020/12/13 12:46:28;;;;;;;3.67;2.20;;;5.20;99.90;;;;;;4869009;29;20049;-80
2020/12/13 12:48:56;;;;;;;4.47;2.67;;;5.20;99.90;;;;;;4856156;29;20075;-80
2020/12/13 12:51:32;;;;;;;5.40;2.50;;;5.20;99.90;;;;;;4872932;29;20538;-88
2020/12/13 12:53:58;;;;;;;3.92;2.40;;;5.20;99.90;;;;;;4875302;29;20710;-86
2020/12/13 12:56:25;;;;;;;5.40;2.83;;;5.20;99.90;;;;;;4880661;29;20045;-86
2020/12/13 12:58:59;;;;;;;4.70;2.67;;;5.20;99.90;;;;;;4875983;29;20036;-84
2020/12/13 13:01:31;;;;;;;4.18;2.10;;;5.30;99.90;;;;;;4913709;29;20060;-80
2020/12/13 13:04:00;;;;;;;8.57;2.90;;;5.20;99.90;;;;;;4989853;28;20045;-82
2020/12/13 13:06:35;;;;;;;4.57;2.63;;;5.20;99.90;;;;;;4993508;28;20026;-80
2020/12/13 13:09:12;;;;;;;4.13;2.63;;;5.20;99.90;;;;;;4991832;28;20057;-79
2020/12/13 13:15:46;;;;;;;4.40;2.40;;;5.20;99.90;;;;;;4913314;29;20523;-84
2020/12/13 13:18:31;;;;;;;5.72;2.45;;;5.20;99.90;;;;;;4895958;29;20051;-84
2020/12/13 13:21:03;;;;;;;3.38;1.75;;;5.20;99.90;;;;;;4910786;29;20071;-83
2020/12/13 13:27:24;;;;;;;2.67;1.90;;;5.20;99.90;;;;;;4829581;29;20041;-82
2020/12/13 13:32:54;;;;;;;4.82;2.80;;;5.10;99.90;;;;;;5895735;23;20635;-82
2020/12/13 13:35:20;;;;;;;5.22;2.97;;;5.10;99.90;;;;;;4988440;28;20042;-81
2020/12/13 13:37:45;;;;;;;3.60;2.08;;;5.10;99.90;;;;;;4991182;28;20037;-81
2020/12/13 13:40:11;;;;;;;5.00;2.70;;;5.10;99.90;;;;;;5003409;28;20133;-81
2020/12/13 13:42:38;;;;;;;3.53;2.13;;;5.10;99.90;;;;;;4994771;28;20026;-80